createdAt,value
2023-05-14T00:04:01.680Z,8.20
2023-05-14T00:14:01.455Z,9.30
2023-05-14T00:24:01.599Z,11.00
2023-05-14T00:34:01.383Z,9.10
2023-05-14T00:44:01.539Z,9.00
2023-05-14T00:54:01.424Z,10.10
2023-05-14T01:04:01.486Z,8.80
2023-05-14T01:14:01.148Z,8.40
2023-05-14T01:24:01.101Z,9.40
2023-05-14T01:34:00.959Z,9.40
2023-05-14T01:44:01.770Z,9.60
2023-05-14T01:54:00.897Z,10.30
2023-05-14T02:04:00.751Z,9.60
2023-05-14T02:14:00.569Z,8.40
2023-05-14T02:24:01.195Z,9.70
2023-05-14T02:34:00.254Z,10.80
2023-05-14T02:43:59.950Z,9.80
2023-05-14T02:54:00.177Z,9.20
2023-05-14T03:03:59.631Z,9.10
2023-05-14T03:13:59.481Z,10.00
2023-05-14T03:23:59.267Z,10.30
2023-05-14T03:33:59.299Z,9.70
2023-05-14T03:43:59.110Z,9.50
2023-05-14T03:53:59.205Z,9.90
2023-05-14T04:03:58.640Z,9.30
2023-05-14T04:13:58.460Z,9.00
2023-05-14T04:23:58.055Z,8.40
2023-05-14T04:33:57.784Z,10.70
2023-05-14T04:43:57.504Z,9.70
2023-05-14T04:53:57.272Z,9.80
2023-05-14T05:03:57.039Z,8.40
2023-05-14T05:13:56.992Z,8.80
2023-05-14T05:23:56.676Z,9.10
2023-05-14T05:33:56.573Z,8.90
2023-05-14T05:43:56.447Z,11.00
2023-05-14T05:53:56.401Z,8.30
2023-05-14T06:03:56.474Z,9.40
2023-05-14T06:13:56.400Z,9.60
2023-05-14T06:23:56.254Z,8.30
2023-05-14T06:34:01.309Z,8.10
2023-05-14T06:43:56.576Z,7.30
2023-05-14T06:54:01.574Z,9.00
2023-05-14T07:04:01.163Z,6.90
2023-05-14T07:14:00.768Z,7.40
2023-05-14T07:24:00.475Z,6.40
2023-05-14T07:34:00.227Z,5.10
2023-05-14T07:43:59.758Z,6.50
2023-05-14T07:53:59.530Z,5.50
2023-05-14T08:03:59.159Z,5.20
2023-05-14T08:13:58.959Z,5.10
2023-05-14T08:24:04.154Z,6.40
2023-05-14T08:34:03.624Z,5.20
2023-05-14T08:44:03.575Z,5.30
2023-05-14T08:54:05.230Z,5.10
2023-05-14T09:04:02.700Z,5.20
2023-05-14T09:14:02.186Z,5.60
2023-05-14T09:24:08.947Z,5.30
2023-05-14T09:34:06.994Z,6.20
2023-05-14T09:44:06.885Z,6.60
2023-05-14T09:54:06.267Z,6.00
2023-05-14T10:04:06.176Z,5.60
2023-05-14T10:14:05.922Z,6.20
2023-05-14T10:24:11.272Z,6.80
2023-05-14T10:34:10.882Z,5.90
2023-05-14T10:44:10.399Z,6.90
2023-05-14T10:54:10.174Z,7.50
2023-05-14T11:04:10.896Z,7.10
2023-05-14T11:14:15.254Z,6.10
2023-05-14T11:24:21.949Z,6.20
2023-05-14T11:34:14.432Z,7.30
2023-05-14T11:44:14.044Z,5.80
2023-05-14T11:54:14.156Z,5.90
2023-05-14T12:04:19.506Z,5.30
2023-05-14T12:14:20.487Z,6.40
2023-05-14T12:24:18.602Z,5.90
2023-05-14T12:34:18.448Z,6.40
2023-05-14T12:44:23.571Z,5.70
2023-05-14T12:54:23.231Z,5.50
2023-05-14T13:04:22.870Z,5.50
2023-05-14T13:14:22.375Z,5.20
2023-05-14T13:24:22.194Z,5.60
2023-05-14T13:34:27.320Z,5.50
2023-05-14T13:44:29.176Z,5.60
2023-05-14T13:54:26.777Z,5.10
2023-05-14T14:04:26.286Z,5.10
2023-05-14T14:14:31.420Z,4.90
2023-05-14T14:24:31.285Z,5.10
2023-05-14T14:34:30.672Z,5.00
2023-05-14T14:44:30.534Z,4.70
2023-05-14T14:54:35.473Z,4.90
2023-05-14T15:04:35.126Z,4.30
2023-05-14T15:14:34.749Z,4.90
2023-05-14T15:24:34.424Z,4.70
2023-05-14T15:34:39.557Z,4.90
2023-05-14T15:44:39.212Z,5.30
2023-05-14T15:54:38.847Z,5.60
2023-05-14T16:04:38.492Z,5.10
2023-05-14T16:14:43.646Z,4.90
2023-05-14T16:24:43.431Z,4.90
2023-05-14T16:34:43.075Z,4.80
2023-05-14T16:44:42.546Z,5.10
2023-05-14T16:54:47.843Z,4.90
2023-05-14T17:04:47.540Z,5.40
2023-05-14T17:14:47.349Z,5.20
2023-05-14T17:24:46.639Z,4.90
2023-05-14T17:34:46.751Z,5.60
2023-05-14T17:44:51.924Z,5.10
2023-05-14T17:54:51.558Z,4.40
2023-05-14T18:04:51.393Z,5.30
2023-05-14T18:14:51.035Z,5.10
2023-05-14T18:24:56.081Z,5.00
2023-05-14T18:34:55.768Z,5.00
2023-05-14T18:44:57.242Z,4.80
2023-05-14T18:54:56.689Z,4.80
2023-05-14T19:04:54.721Z,4.70
2023-05-14T19:14:59.841Z,4.80
2023-05-14T19:24:59.366Z,4.90
2023-05-14T19:34:58.995Z,4.80
2023-05-14T19:45:02.021Z,4.80
2023-05-14T19:54:58.261Z,5.00
2023-05-14T20:05:03.433Z,4.50
2023-05-14T20:15:03.050Z,5.00
2023-05-14T20:25:02.655Z,5.40
2023-05-14T20:35:02.363Z,4.40
2023-05-14T20:45:01.889Z,5.30
2023-05-14T20:55:02.382Z,5.30
2023-05-14T21:05:06.622Z,5.00
2023-05-14T21:15:06.261Z,5.00
2023-05-14T21:25:05.884Z,5.20
2023-05-14T21:35:06.014Z,4.80
2023-05-14T21:45:05.808Z,4.60
2023-05-14T21:55:04.944Z,4.90
2023-05-14T22:05:04.854Z,5.00
2023-05-14T22:15:10.912Z,5.40
2023-05-14T22:25:09.522Z,6.80
2023-05-14T22:35:09.500Z,6.50
2023-05-14T22:45:09.980Z,5.70
2023-05-14T22:55:08.377Z,7.10
2023-05-14T23:05:08.384Z,7.00
2023-05-14T23:15:07.625Z,5.30
2023-05-14T23:25:12.790Z,6.30
2023-05-14T23:35:12.577Z,7.80
2023-05-14T23:45:12.029Z,6.30
2023-05-14T23:55:11.698Z,6.10
